< < Back
Terminal Aerodrome Forecast


Current Version              Previous Versions:   1  2  3  4  5  6  7  8  9  

Terminal Aerodrome Forecast

926
FTUS42 KGSP 271134
TAFAND
TAF
KAND 271134Z 2712/2812 01007KT P6SM -SHRA OVC040
     FM271400 01006KT P6SM OVC025
     FM272000 00000KT P6SM BKN050
     FM280200 27007KT P6SM BKN060
     FM280400 29008KT P6SM SCT090=

Latest METAR

028
SAUS70 KWBC 281500 RRA
MTRAND
METAR KAND 281456Z AUTO 35009KT 10SM CLR 07/M08 A3010 RMK AO2 SLP192
T00671078 51019


USA.gov is the U.S. government's official web portal to all federal, state and local government web resources and services.